sensor_id;sensor_type;location;lat;lon;timestamp;P1;durP1;ratioP1;P2;durP2;ratioP2
52368;SDS011;38298;50.346;3.526;2022-12-10T00:02:18;60.10;;;20.52;;
52368;SDS011;38298;50.346;3.526;2022-12-10T00:04:44;58.88;;;20.35;;
52368;SDS011;38298;50.346;3.526;2022-12-10T00:07:09;61.45;;;20.73;;
52368;SDS011;38298;50.346;3.526;2022-12-10T00:09:36;72.47;;;21.27;;
52368;SDS011;38298;50.346;3.526;2022-12-10T00:12:02;64.72;;;22.08;;
52368;SDS011;38298;50.346;3.526;2022-12-10T00:14:28;59.22;;;20.50;;
52368;SDS011;38298;50.346;3.526;2022-12-10T00:16:54;65.82;;;21.98;;
52368;SDS011;38298;50.346;3.526;2022-12-10T00:19:20;62.85;;;21.65;;
52368;SDS011;38298;50.346;3.526;2022-12-10T00:21:46;69.68;;;23.23;;
52368;SDS011;38298;50.346;3.526;2022-12-10T00:24:12;70.03;;;23.00;;
52368;SDS011;38298;50.346;3.526;2022-12-10T00:26:38;60.05;;;21.48;;
52368;SDS011;38298;50.346;3.526;2022-12-10T00:29:05;60.72;;;20.85;;
52368;SDS011;38298;50.346;3.526;2022-12-10T00:31:33;62.90;;;21.45;;
52368;SDS011;38298;50.346;3.526;2022-12-10T00:34:01;72.38;;;23.02;;
52368;SDS011;38298;50.346;3.526;2022-12-10T00:36:32;61.78;;;23.85;;
52368;SDS011;38298;50.346;3.526;2022-12-10T00:38:59;63.88;;;22.38;;
52368;SDS011;38298;50.346;3.526;2022-12-10T00:41:25;66.20;;;22.08;;
52368;SDS011;38298;50.346;3.526;2022-12-10T00:43:51;79.78;;;23.88;;
52368;SDS011;38298;50.346;3.526;2022-12-10T00:46:17;76.25;;;24.35;;
52368;SDS011;38298;50.346;3.526;2022-12-10T00:48:44;77.25;;;25.38;;
52368;SDS011;38298;50.346;3.526;2022-12-10T00:51:12;66.78;;;22.70;;
52368;SDS011;38298;50.346;3.526;2022-12-10T00:53:38;73.28;;;24.15;;
52368;SDS011;38298;50.346;3.526;2022-12-10T00:56:05;73.50;;;23.10;;
52368;SDS011;38298;50.346;3.526;2022-12-10T00:58:32;68.93;;;21.98;;
52368;SDS011;38298;50.346;3.526;2022-12-10T01:01:08;67.90;;;22.40;;
52368;SDS011;38298;50.346;3.526;2022-12-10T01:03:34;69.93;;;24.35;;
52368;SDS011;38298;50.346;3.526;2022-12-10T01:06:07;70.25;;;22.33;;
52368;SDS011;38298;50.346;3.526;2022-12-10T01:08:33;74.35;;;24.08;;
52368;SDS011;38298;50.346;3.526;2022-12-10T01:10:59;77.40;;;23.80;;
52368;SDS011;38298;50.346;3.526;2022-12-10T01:13:25;69.15;;;23.40;;
52368;SDS011;38298;50.346;3.526;2022-12-10T01:15:51;69.00;;;23.23;;
52368;SDS011;38298;50.346;3.526;2022-12-10T01:18:17;75.65;;;24.58;;
52368;SDS011;38298;50.346;3.526;2022-12-10T01:20:43;69.47;;;22.25;;
52368;SDS011;38298;50.346;3.526;2022-12-10T01:23:09;69.63;;;23.20;;
52368;SDS011;38298;50.346;3.526;2022-12-10T01:25:35;70.75;;;22.90;;
52368;SDS011;38298;50.346;3.526;2022-12-10T01:28:01;58.72;;;20.92;;
52368;SDS011;38298;50.346;3.526;2022-12-10T01:30:27;81.22;;;24.42;;
52368;SDS011;38298;50.346;3.526;2022-12-10T01:32:53;70.70;;;23.83;;
52368;SDS011;38298;50.346;3.526;2022-12-10T01:35:19;62.05;;;21.73;;
52368;SDS011;38298;50.346;3.526;2022-12-10T01:37:45;65.97;;;23.40;;
52368;SDS011;38298;50.346;3.526;2022-12-10T01:40:11;68.13;;;23.33;;
52368;SDS011;38298;50.346;3.526;2022-12-10T01:42:37;65.43;;;22.30;;
52368;SDS011;38298;50.346;3.526;2022-12-10T01:45:06;66.40;;;21.48;;
52368;SDS011;38298;50.346;3.526;2022-12-10T01:47:33;71.03;;;22.03;;
52368;SDS011;38298;50.346;3.526;2022-12-10T01:49:59;63.88;;;22.52;;
52368;SDS011;38298;50.346;3.526;2022-12-10T01:52:25;69.85;;;23.95;;
52368;SDS011;38298;50.346;3.526;2022-12-10T01:54:51;71.13;;;23.45;;
52368;SDS011;38298;50.346;3.526;2022-12-10T01:57:19;70.65;;;22.65;;
52368;SDS011;38298;50.346;3.526;2022-12-10T01:59:47;65.75;;;21.02;;
52368;SDS011;38298;50.346;3.526;2022-12-10T02:02:17;69.78;;;22.27;;
52368;SDS011;38298;50.346;3.526;2022-12-10T02:07:50;66.05;;;22.00;;
52368;SDS011;38298;50.346;3.526;2022-12-10T02:13:19;64.40;;;20.38;;
52368;SDS011;38298;50.346;3.526;2022-12-10T02:15:48;64.63;;;20.83;;
52368;SDS011;38298;50.346;3.526;2022-12-10T02:18:20;58.15;;;20.17;;
52368;SDS011;38298;50.346;3.526;2022-12-10T02:20:48;63.05;;;19.83;;
52368;SDS011;38298;50.346;3.526;2022-12-10T02:23:22;63.60;;;21.45;;
52368;SDS011;38298;50.346;3.526;2022-12-10T02:26:03;58.58;;;19.10;;
52368;SDS011;38298;50.346;3.526;2022-12-10T02:28:44;55.95;;;19.45;;
52368;SDS011;38298;50.346;3.526;2022-12-10T02:31:11;68.65;;;21.73;;
52368;SDS011;38298;50.346;3.526;2022-12-10T02:33:38;63.88;;;20.52;;
52368;SDS011;38298;50.346;3.526;2022-12-10T02:36:05;65.65;;;20.40;;
52368;SDS011;38298;50.346;3.526;2022-12-10T02:38:32;63.08;;;19.60;;
52368;SDS011;38298;50.346;3.526;2022-12-10T02:41:08;65.63;;;20.48;;
52368;SDS011;38298;50.346;3.526;2022-12-10T02:43:38;59.95;;;19.48;;
52368;SDS011;38298;50.346;3.526;2022-12-10T02:46:04;71.65;;;21.15;;
52368;SDS011;38298;50.346;3.526;2022-12-10T02:48:31;65.80;;;21.77;;
52368;SDS011;38298;50.346;3.526;2022-12-10T02:50:58;59.65;;;20.60;;
52368;SDS011;38298;50.346;3.526;2022-12-10T02:53:24;58.25;;;19.65;;
52368;SDS011;38298;50.346;3.526;2022-12-10T02:58:38;62.97;;;19.45;;
52368;SDS011;38298;50.346;3.526;2022-12-10T03:01:12;56.30;;;18.98;;
52368;SDS011;38298;50.346;3.526;2022-12-10T03:03:48;58.97;;;19.50;;
52368;SDS011;38298;50.346;3.526;2022-12-10T03:09:04;70.85;;;21.55;;
52368;SDS011;38298;50.346;3.526;2022-12-10T03:11:31;63.83;;;19.15;;
52368;SDS011;38298;50.346;3.526;2022-12-10T03:14:05;64.03;;;19.38;;
52368;SDS011;38298;50.346;3.526;2022-12-10T03:16:35;67.55;;;20.02;;
52368;SDS011;38298;50.346;3.526;2022-12-10T03:19:03;67.13;;;20.13;;
52368;SDS011;38298;50.346;3.526;2022-12-10T03:21:30;74.10;;;20.15;;
52368;SDS011;38298;50.346;3.526;2022-12-10T03:23:59;61.63;;;18.60;;
52368;SDS011;38298;50.346;3.526;2022-12-10T03:26:25;66.63;;;20.25;;
52368;SDS011;38298;50.346;3.526;2022-12-10T03:28:54;56.78;;;17.58;;
52368;SDS011;38298;50.346;3.526;2022-12-10T03:31:22;68.95;;;19.00;;
52368;SDS011;38298;50.346;3.526;2022-12-10T03:33:49;64.85;;;18.65;;
52368;SDS011;38298;50.346;3.526;2022-12-10T03:36:15;61.05;;;18.15;;
52368;SDS011;38298;50.346;3.526;2022-12-10T03:38:42;60.42;;;16.83;;
52368;SDS011;38298;50.346;3.526;2022-12-10T03:41:09;59.17;;;16.50;;
52368;SDS011;38298;50.346;3.526;2022-12-10T03:43:35;59.38;;;16.48;;
52368;SDS011;38298;50.346;3.526;2022-12-10T03:46:01;52.20;;;15.23;;
52368;SDS011;38298;50.346;3.526;2022-12-10T03:48:27;56.72;;;17.60;;
52368;SDS011;38298;50.346;3.526;2022-12-10T03:50:53;56.45;;;16.75;;
52368;SDS011;38298;50.346;3.526;2022-12-10T03:53:19;56.67;;;16.83;;
52368;SDS011;38298;50.346;3.526;2022-12-10T03:55:45;60.15;;;17.42;;
52368;SDS011;38298;50.346;3.526;2022-12-10T03:58:11;61.25;;;17.45;;
52368;SDS011;38298;50.346;3.526;2022-12-10T04:00:37;65.38;;;17.55;;
52368;SDS011;38298;50.346;3.526;2022-12-10T04:03:03;58.30;;;17.98;;
52368;SDS011;38298;50.346;3.526;2022-12-10T04:05:29;61.72;;;16.70;;
52368;SDS011;38298;50.346;3.526;2022-12-10T04:07:55;59.33;;;15.73;;
52368;SDS011;38298;50.346;3.526;2022-12-10T04:10:21;59.63;;;17.50;;
52368;SDS011;38298;50.346;3.526;2022-12-10T04:12:47;59.72;;;17.40;;
52368;SDS011;38298;50.346;3.526;2022-12-10T04:15:33;61.65;;;16.73;;
52368;SDS011;38298;50.346;3.526;2022-12-10T04:18:17;57.13;;;16.95;;
52368;SDS011;38298;50.346;3.526;2022-12-10T04:20:43;55.75;;;16.35;;
52368;SDS011;38298;50.346;3.526;2022-12-10T04:23:28;61.08;;;16.13;;
52368;SDS011;38298;50.346;3.526;2022-12-10T04:26:26;57.60;;;16.75;;
52368;SDS011;38298;50.346;3.526;2022-12-10T04:29:11;51.33;;;17.08;;
52368;SDS011;38298;50.346;3.526;2022-12-10T04:31:37;53.63;;;16.45;;
52368;SDS011;38298;50.346;3.526;2022-12-10T04:34:03;55.47;;;16.27;;
52368;SDS011;38298;50.346;3.526;2022-12-10T04:36:29;60.53;;;17.33;;
52368;SDS011;38298;50.346;3.526;2022-12-10T04:38:55;53.30;;;17.08;;
52368;SDS011;38298;50.346;3.526;2022-12-10T04:41:21;62.55;;;17.42;;
52368;SDS011;38298;50.346;3.526;2022-12-10T04:43:47;61.55;;;15.23;;
52368;SDS011;38298;50.346;3.526;2022-12-10T04:46:13;70.82;;;19.35;;
52368;SDS011;38298;50.346;3.526;2022-12-10T04:48:39;62.25;;;17.98;;
52368;SDS011;38298;50.346;3.526;2022-12-10T04:51:05;59.67;;;16.65;;
52368;SDS011;38298;50.346;3.526;2022-12-10T04:53:31;53.45;;;17.13;;
52368;SDS011;38298;50.346;3.526;2022-12-10T04:55:57;57.63;;;17.45;;
52368;SDS011;38298;50.346;3.526;2022-12-10T04:58:23;52.47;;;16.30;;
52368;SDS011;38298;50.346;3.526;2022-12-10T05:00:49;61.97;;;16.85;;
52368;SDS011;38298;50.346;3.526;2022-12-10T05:03:15;51.80;;;16.70;;
52368;SDS011;38298;50.346;3.526;2022-12-10T05:05:41;59.03;;;17.60;;
52368;SDS011;38298;50.346;3.526;2022-12-10T05:08:07;55.80;;;15.88;;
52368;SDS011;38298;50.346;3.526;2022-12-10T05:10:34;63.47;;;16.90;;
52368;SDS011;38298;50.346;3.526;2022-12-10T05:13:00;50.83;;;15.65;;
52368;SDS011;38298;50.346;3.526;2022-12-10T05:15:26;50.75;;;15.95;;
52368;SDS011;38298;50.346;3.526;2022-12-10T05:17:52;55.35;;;15.93;;
52368;SDS011;38298;50.346;3.526;2022-12-10T05:20:17;57.88;;;16.50;;
52368;SDS011;38298;50.346;3.526;2022-12-10T05:22:43;58.72;;;17.67;;
52368;SDS011;38298;50.346;3.526;2022-12-10T05:25:28;58.30;;;15.90;;
52368;SDS011;38298;50.346;3.526;2022-12-10T05:27:54;63.20;;;18.77;;
52368;SDS011;38298;50.346;3.526;2022-12-10T05:30:20;57.15;;;16.58;;
52368;SDS011;38298;50.346;3.526;2022-12-10T05:32:46;60.47;;;16.73;;
52368;SDS011;38298;50.346;3.526;2022-12-10T05:35:12;57.63;;;14.45;;
52368;SDS011;38298;50.346;3.526;2022-12-10T05:37:38;67.38;;;16.98;;
52368;SDS011;38298;50.346;3.526;2022-12-10T05:40:04;50.08;;;15.40;;
52368;SDS011;38298;50.346;3.526;2022-12-10T05:42:30;51.88;;;15.23;;
52368;SDS011;38298;50.346;3.526;2022-12-10T05:44:56;58.85;;;15.07;;
52368;SDS011;38298;50.346;3.526;2022-12-10T05:47:22;51.58;;;16.50;;
52368;SDS011;38298;50.346;3.526;2022-12-10T05:49:48;60.05;;;15.68;;
52368;SDS011;38298;50.346;3.526;2022-12-10T05:52:14;56.30;;;15.60;;
52368;SDS011;38298;50.346;3.526;2022-12-10T05:54:40;56.22;;;15.73;;
52368;SDS011;38298;50.346;3.526;2022-12-10T05:57:06;52.60;;;15.90;;
52368;SDS011;38298;50.346;3.526;2022-12-10T05:59:32;52.03;;;14.38;;
52368;SDS011;38298;50.346;3.526;2022-12-10T06:01:58;48.85;;;13.95;;
52368;SDS011;38298;50.346;3.526;2022-12-10T06:04:24;49.58;;;14.38;;
52368;SDS011;38298;50.346;3.526;2022-12-10T06:06:50;44.58;;;13.65;;
52368;SDS011;38298;50.346;3.526;2022-12-10T06:09:16;50.45;;;12.85;;
52368;SDS011;38298;50.346;3.526;2022-12-10T06:11:42;50.10;;;12.95;;
52368;SDS011;38298;50.346;3.526;2022-12-10T06:14:09;44.65;;;13.23;;
52368;SDS011;38298;50.346;3.526;2022-12-10T06:16:35;44.45;;;13.98;;
52368;SDS011;38298;50.346;3.526;2022-12-10T06:19:01;57.28;;;13.18;;
52368;SDS011;38298;50.346;3.526;2022-12-10T06:21:27;44.55;;;13.15;;
52368;SDS011;38298;50.346;3.526;2022-12-10T06:23:53;53.80;;;14.05;;
52368;SDS011;38298;50.346;3.526;2022-12-10T06:26:20;52.17;;;13.10;;
52368;SDS011;38298;50.346;3.526;2022-12-10T06:28:47;47.90;;;12.63;;
52368;SDS011;38298;50.346;3.526;2022-12-10T06:31:13;44.28;;;12.98;;
52368;SDS011;38298;50.346;3.526;2022-12-10T06:33:39;56.50;;;14.05;;
52368;SDS011;38298;50.346;3.526;2022-12-10T06:36:06;48.42;;;13.45;;
52368;SDS011;38298;50.346;3.526;2022-12-10T06:38:32;48.88;;;11.85;;
52368;SDS011;38298;50.346;3.526;2022-12-10T06:40:59;51.05;;;13.80;;
52368;SDS011;38298;50.346;3.526;2022-12-10T06:43:28;53.90;;;13.98;;
52368;SDS011;38298;50.346;3.526;2022-12-10T06:45:54;43.50;;;12.40;;
52368;SDS011;38298;50.346;3.526;2022-12-10T06:48:20;40.72;;;11.77;;
52368;SDS011;38298;50.346;3.526;2022-12-10T06:50:46;51.15;;;11.93;;
52368;SDS011;38298;50.346;3.526;2022-12-10T06:53:12;51.55;;;13.48;;
52368;SDS011;38298;50.346;3.526;2022-12-10T06:55:38;45.92;;;12.48;;
52368;SDS011;38298;50.346;3.526;2022-12-10T06:58:04;46.42;;;11.60;;
52368;SDS011;38298;50.346;3.526;2022-12-10T07:00:30;43.08;;;11.35;;
52368;SDS011;38298;50.346;3.526;2022-12-10T07:02:56;51.85;;;12.60;;
52368;SDS011;38298;50.346;3.526;2022-12-10T07:05:22;51.63;;;13.27;;
52368;SDS011;38298;50.346;3.526;2022-12-10T07:07:48;46.08;;;12.80;;
52368;SDS011;38298;50.346;3.526;2022-12-10T07:10:14;55.10;;;14.13;;
52368;SDS011;38298;50.346;3.526;2022-12-10T07:12:40;54.55;;;15.18;;
52368;SDS011;38298;50.346;3.526;2022-12-10T07:15:07;58.38;;;14.77;;
52368;SDS011;38298;50.346;3.526;2022-12-10T07:17:33;49.95;;;14.02;;
52368;SDS011;38298;50.346;3.526;2022-12-10T07:19:59;50.28;;;13.43;;
52368;SDS011;38298;50.346;3.526;2022-12-10T07:22:25;47.78;;;12.57;;
52368;SDS011;38298;50.346;3.526;2022-12-10T07:24:51;50.17;;;13.95;;
52368;SDS011;38298;50.346;3.526;2022-12-10T07:27:17;61.28;;;13.40;;
52368;SDS011;38298;50.346;3.526;2022-12-10T07:29:43;48.95;;;13.77;;
52368;SDS011;38298;50.346;3.526;2022-12-10T07:32:09;57.88;;;15.27;;
52368;SDS011;38298;50.346;3.526;2022-12-10T07:34:35;58.08;;;14.10;;
52368;SDS011;38298;50.346;3.526;2022-12-10T07:37:01;56.63;;;15.05;;
52368;SDS011;38298;50.346;3.526;2022-12-10T07:39:27;59.92;;;14.18;;
52368;SDS011;38298;50.346;3.526;2022-12-10T07:41:53;72.53;;;19.30;;
52368;SDS011;38298;50.346;3.526;2022-12-10T07:44:20;58.78;;;16.45;;
52368;SDS011;38298;50.346;3.526;2022-12-10T07:46:47;67.38;;;15.32;;
52368;SDS011;38298;50.346;3.526;2022-12-10T07:49:13;63.25;;;15.73;;
52368;SDS011;38298;50.346;3.526;2022-12-10T07:51:42;55.03;;;16.25;;
52368;SDS011;38298;50.346;3.526;2022-12-10T07:54:09;48.33;;;13.32;;
52368;SDS011;38298;50.346;3.526;2022-12-10T07:56:35;56.33;;;14.05;;
52368;SDS011;38298;50.346;3.526;2022-12-10T07:59:01;67.43;;;17.27;;
52368;SDS011;38298;50.346;3.526;2022-12-10T08:01:27;60.45;;;14.63;;
52368;SDS011;38298;50.346;3.526;2022-12-10T08:03:53;60.85;;;15.35;;
52368;SDS011;38298;50.346;3.526;2022-12-10T08:06:24;69.70;;;16.55;;
52368;SDS011;38298;50.346;3.526;2022-12-10T08:08:50;64.15;;;14.77;;
52368;SDS011;38298;50.346;3.526;2022-12-10T08:11:18;61.80;;;14.57;;
52368;SDS011;38298;50.346;3.526;2022-12-10T08:13:44;61.80;;;14.68;;
52368;SDS011;38298;50.346;3.526;2022-12-10T08:16:12;66.95;;;16.23;;
52368;SDS011;38298;50.346;3.526;2022-12-10T08:18:38;60.35;;;15.43;;
52368;SDS011;38298;50.346;3.526;2022-12-10T08:21:05;61.60;;;17.02;;
52368;SDS011;38298;50.346;3.526;2022-12-10T08:23:32;62.22;;;17.08;;
52368;SDS011;38298;50.346;3.526;2022-12-10T08:25:58;62.85;;;16.15;;
52368;SDS011;38298;50.346;3.526;2022-12-10T08:28:24;61.78;;;15.38;;
52368;SDS011;38298;50.346;3.526;2022-12-10T08:30:50;74.40;;;16.48;;
52368;SDS011;38298;50.346;3.526;2022-12-10T08:33:16;55.80;;;13.35;;
52368;SDS011;38298;50.346;3.526;2022-12-10T08:35:42;61.58;;;13.75;;
52368;SDS011;38298;50.346;3.526;2022-12-10T08:38:08;60.50;;;15.75;;
52368;SDS011;38298;50.346;3.526;2022-12-10T08:40:33;55.47;;;14.07;;
52368;SDS011;38298;50.346;3.526;2022-12-10T08:42:59;54.45;;;13.55;;
52368;SDS011;38298;50.346;3.526;2022-12-10T08:45:25;69.28;;;15.52;;
52368;SDS011;38298;50.346;3.526;2022-12-10T08:47:51;66.35;;;16.33;;
52368;SDS011;38298;50.346;3.526;2022-12-10T08:50:17;62.33;;;16.30;;
52368;SDS011;38298;50.346;3.526;2022-12-10T08:52:44;57.60;;;14.07;;
52368;SDS011;38298;50.346;3.526;2022-12-10T08:55:10;62.50;;;15.43;;
52368;SDS011;38298;50.346;3.526;2022-12-10T08:57:36;47.83;;;12.48;;
52368;SDS011;38298;50.346;3.526;2022-12-10T09:00:02;56.65;;;14.55;;
52368;SDS011;38298;50.346;3.526;2022-12-10T09:02:29;55.45;;;13.23;;
52368;SDS011;38298;50.346;3.526;2022-12-10T09:04:55;49.75;;;12.30;;
52368;SDS011;38298;50.346;3.526;2022-12-10T09:07:21;56.05;;;13.25;;
52368;SDS011;38298;50.346;3.526;2022-12-10T09:09:47;49.60;;;12.18;;
52368;SDS011;38298;50.346;3.526;2022-12-10T09:12:13;53.67;;;12.85;;
52368;SDS011;38298;50.346;3.526;2022-12-10T09:14:39;52.17;;;12.40;;
52368;SDS011;38298;50.346;3.526;2022-12-10T09:17:06;48.58;;;14.07;;
52368;SDS011;38298;50.346;3.526;2022-12-10T09:19:33;53.97;;;14.52;;
52368;SDS011;38298;50.346;3.526;2022-12-10T09:21:59;52.85;;;16.13;;
52368;SDS011;38298;50.346;3.526;2022-12-10T09:24:25;59.33;;;14.55;;
52368;SDS011;38298;50.346;3.526;2022-12-10T09:26:51;59.67;;;16.98;;
52368;SDS011;38298;50.346;3.526;2022-12-10T09:29:17;61.03;;;15.27;;
52368;SDS011;38298;50.346;3.526;2022-12-10T09:31:43;56.15;;;15.50;;
52368;SDS011;38298;50.346;3.526;2022-12-10T09:34:09;53.20;;;13.82;;
52368;SDS011;38298;50.346;3.526;2022-12-10T09:36:36;52.47;;;14.52;;
52368;SDS011;38298;50.346;3.526;2022-12-10T09:39:02;60.92;;;14.35;;
52368;SDS011;38298;50.346;3.526;2022-12-10T09:46:55;54.88;;;14.27;;
52368;SDS011;38298;50.346;3.526;2022-12-10T09:51:48;56.83;;;13.98;;
52368;SDS011;38298;50.346;3.526;2022-12-10T09:56:52;47.20;;;12.85;;
52368;SDS011;38298;50.346;3.526;2022-12-10T09:59:36;48.28;;;13.32;;
52368;SDS011;38298;50.346;3.526;2022-12-10T10:02:11;51.85;;;14.00;;
52368;SDS011;38298;50.346;3.526;2022-12-10T10:04:42;52.88;;;13.15;;
52368;SDS011;38298;50.346;3.526;2022-12-10T10:07:09;57.58;;;14.73;;
52368;SDS011;38298;50.346;3.526;2022-12-10T10:09:38;59.67;;;15.00;;
52368;SDS011;38298;50.346;3.526;2022-12-10T10:12:14;70.57;;;16.35;;
52368;SDS011;38298;50.346;3.526;2022-12-10T10:14:41;55.55;;;14.63;;
52368;SDS011;38298;50.346;3.526;2022-12-10T10:17:13;46.33;;;14.02;;
52368;SDS011;38298;50.346;3.526;2022-12-10T10:19:42;54.80;;;14.32;;
52368;SDS011;38298;50.346;3.526;2022-12-10T10:22:09;53.13;;;14.90;;
52368;SDS011;38298;50.346;3.526;2022-12-10T10:24:37;52.95;;;14.63;;
52368;SDS011;38298;50.346;3.526;2022-12-10T10:27:14;51.15;;;13.95;;
52368;SDS011;38298;50.346;3.526;2022-12-10T10:29:41;53.17;;;13.75;;
52368;SDS011;38298;50.346;3.526;2022-12-10T10:34:40;54.08;;;15.18;;
52368;SDS011;38298;50.346;3.526;2022-12-10T10:37:06;58.75;;;16.48;;
52368;SDS011;38298;50.346;3.526;2022-12-10T10:39:33;64.65;;;16.20;;
52368;SDS011;38298;50.346;3.526;2022-12-10T10:42:00;57.80;;;17.30;;
52368;SDS011;38298;50.346;3.526;2022-12-10T10:44:33;54.05;;;15.05;;
52368;SDS011;38298;50.346;3.526;2022-12-10T10:47:00;62.70;;;15.45;;
52368;SDS011;38298;50.346;3.526;2022-12-10T10:49:28;53.28;;;14.88;;
52368;SDS011;38298;50.346;3.526;2022-12-10T10:52:05;46.25;;;14.70;;
52368;SDS011;38298;50.346;3.526;2022-12-10T10:54:37;49.50;;;14.13;;
52368;SDS011;38298;50.346;3.526;2022-12-10T10:57:08;52.15;;;13.73;;
52368;SDS011;38298;50.346;3.526;2022-12-10T10:59:36;53.40;;;14.52;;
52368;SDS011;38298;50.346;3.526;2022-12-10T11:02:16;57.13;;;15.05;;
52368;SDS011;38298;50.346;3.526;2022-12-10T11:07:35;48.20;;;14.23;;
52368;SDS011;38298;50.346;3.526;2022-12-10T11:09:59;36.53;;;11.75;;
52368;SDS011;38298;50.346;3.526;2022-12-10T11:12:38;40.35;;;13.05;;
52368;SDS011;38298;50.346;3.526;2022-12-10T11:18:00;39.80;;;12.00;;
52368;SDS011;38298;50.346;3.526;2022-12-10T11:20:28;42.53;;;12.77;;
52368;SDS011;38298;50.346;3.526;2022-12-10T11:22:55;51.17;;;12.95;;
52368;SDS011;38298;50.346;3.526;2022-12-10T11:25:37;45.42;;;12.95;;
52368;SDS011;38298;50.346;3.526;2022-12-10T11:30:35;45.42;;;13.73;;
52368;SDS011;38298;50.346;3.526;2022-12-10T11:38:26;38.05;;;12.25;;
52368;SDS011;38298;50.346;3.526;2022-12-10T11:51:03;32.08;;;10.82;;
52368;SDS011;38298;50.346;3.526;2022-12-10T11:56:57;44.92;;;12.25;;
52368;SDS011;38298;50.346;3.526;2022-12-10T12:04:23;38.22;;;10.30;;
52368;SDS011;38298;50.346;3.526;2022-12-10T12:15:03;39.03;;;11.70;;
52368;SDS011;38298;50.346;3.526;2022-12-10T12:17:31;38.45;;;10.70;;
52368;SDS011;38298;50.346;3.526;2022-12-10T12:19:59;26.85;;;8.57;;
52368;SDS011;38298;50.346;3.526;2022-12-10T12:24:54;32.35;;;11.13;;
52368;SDS011;38298;50.346;3.526;2022-12-10T12:27:24;34.03;;;11.27;;
52368;SDS011;38298;50.346;3.526;2022-12-10T12:30:05;31.60;;;9.75;;
52368;SDS011;38298;50.346;3.526;2022-12-10T12:32:36;31.05;;;9.82;;
52368;SDS011;38298;50.346;3.526;2022-12-10T12:35:21;26.50;;;8.82;;
52368;SDS011;38298;50.346;3.526;2022-12-10T12:43:24;27.77;;;9.05;;
52368;SDS011;38298;50.346;3.526;2022-12-10T12:45:54;28.05;;;9.02;;
52368;SDS011;38298;50.346;3.526;2022-12-10T12:50:49;29.98;;;9.90;;
52368;SDS011;38298;50.346;3.526;2022-12-10T12:53:18;37.45;;;10.40;;
52368;SDS011;38298;50.346;3.526;2022-12-10T13:03:43;24.13;;;8.05;;
52368;SDS011;38298;50.346;3.526;2022-12-10T13:08:43;30.52;;;10.80;;
52368;SDS011;38298;50.346;3.526;2022-12-10T13:13:36;27.42;;;9.82;;
52368;SDS011;38298;50.346;3.526;2022-12-10T13:18:47;30.40;;;9.93;;
52368;SDS011;38298;50.346;3.526;2022-12-10T13:21:25;31.00;;;9.85;;
52368;SDS011;38298;50.346;3.526;2022-12-10T13:23:52;27.23;;;9.57;;
52368;SDS011;38298;50.346;3.526;2022-12-10T13:26:27;30.08;;;11.40;;
52368;SDS011;38298;50.346;3.526;2022-12-10T13:28:54;26.48;;;10.05;;
52368;SDS011;38298;50.346;3.526;2022-12-10T13:31:41;33.50;;;10.43;;
52368;SDS011;38298;50.346;3.526;2022-12-10T13:34:21;33.95;;;10.57;;
52368;SDS011;38298;50.346;3.526;2022-12-10T13:39:21;34.60;;;12.38;;
52368;SDS011;38298;50.346;3.526;2022-12-10T13:45:06;34.50;;;11.73;;
52368;SDS011;38298;50.346;3.526;2022-12-10T13:47:49;36.00;;;11.55;;
52368;SDS011;38298;50.346;3.526;2022-12-10T13:50:20;30.73;;;11.07;;
52368;SDS011;38298;50.346;3.526;2022-12-10T13:58:27;41.83;;;12.88;;
52368;SDS011;38298;50.346;3.526;2022-12-10T14:01:00;31.52;;;12.13;;
52368;SDS011;38298;50.346;3.526;2022-12-10T14:06:22;26.10;;;10.40;;
52368;SDS011;38298;50.346;3.526;2022-12-10T14:08:54;26.30;;;9.57;;
52368;SDS011;38298;50.346;3.526;2022-12-10T14:11:22;25.98;;;9.20;;
52368;SDS011;38298;50.346;3.526;2022-12-10T14:13:51;23.98;;;9.20;;
52368;SDS011;38298;50.346;3.526;2022-12-10T14:16:19;31.58;;;10.75;;
52368;SDS011;38298;50.346;3.526;2022-12-10T14:18:47;29.85;;;10.50;;
52368;SDS011;38298;50.346;3.526;2022-12-10T14:21:16;28.30;;;10.48;;
52368;SDS011;38298;50.346;3.526;2022-12-10T14:23:44;30.40;;;10.20;;
52368;SDS011;38298;50.346;3.526;2022-12-10T14:26:17;42.47;;;11.77;;
52368;SDS011;38298;50.346;3.526;2022-12-10T14:28:49;30.20;;;9.63;;
52368;SDS011;38298;50.346;3.526;2022-12-10T14:33:41;28.65;;;9.48;;
52368;SDS011;38298;50.346;3.526;2022-12-10T14:36:14;27.55;;;10.02;;
52368;SDS011;38298;50.346;3.526;2022-12-10T14:38:40;22.98;;;9.52;;
52368;SDS011;38298;50.346;3.526;2022-12-10T14:41:06;27.30;;;10.07;;
52368;SDS011;38298;50.346;3.526;2022-12-10T14:43:35;27.13;;;10.80;;
52368;SDS011;38298;50.346;3.526;2022-12-10T14:46:03;45.83;;;21.40;;
52368;SDS011;38298;50.346;3.526;2022-12-10T14:48:29;39.30;;;19.80;;
52368;SDS011;38298;50.346;3.526;2022-12-10T14:51:06;22.25;;;10.15;;
52368;SDS011;38298;50.346;3.526;2022-12-10T14:53:35;28.42;;;10.60;;
52368;SDS011;38298;50.346;3.526;2022-12-10T14:56:02;30.45;;;11.00;;
52368;SDS011;38298;50.346;3.526;2022-12-10T14:58:37;24.88;;;10.13;;
52368;SDS011;38298;50.346;3.526;2022-12-10T15:01:04;26.45;;;8.90;;
52368;SDS011;38298;50.346;3.526;2022-12-10T15:03:32;23.52;;;9.35;;
52368;SDS011;38298;50.346;3.526;2022-12-10T15:06:01;22.30;;;9.68;;
52368;SDS011;38298;50.346;3.526;2022-12-10T15:08:28;18.30;;;8.32;;
52368;SDS011;38298;50.346;3.526;2022-12-10T15:10:55;23.00;;;8.50;;
52368;SDS011;38298;50.346;3.526;2022-12-10T15:13:23;23.10;;;8.68;;
52368;SDS011;38298;50.346;3.526;2022-12-10T15:15:50;26.95;;;9.82;;
52368;SDS011;38298;50.346;3.526;2022-12-10T15:18:18;35.65;;;10.65;;
52368;SDS011;38298;50.346;3.526;2022-12-10T15:20:50;41.15;;;10.48;;
52368;SDS011;38298;50.346;3.526;2022-12-10T15:23:23;32.65;;;10.95;;
52368;SDS011;38298;50.346;3.526;2022-12-10T15:25:51;29.58;;;9.80;;
52368;SDS011;38298;50.346;3.526;2022-12-10T15:31:12;25.98;;;9.95;;
52368;SDS011;38298;50.346;3.526;2022-12-10T15:33:40;30.20;;;9.48;;
52368;SDS011;38298;50.346;3.526;2022-12-10T15:36:41;23.88;;;8.45;;
52368;SDS011;38298;50.346;3.526;2022-12-10T15:39:03;26.40;;;9.13;;
52368;SDS011;38298;50.346;3.526;2022-12-10T15:41:46;28.58;;;11.48;;
52368;SDS011;38298;50.346;3.526;2022-12-10T15:46:51;31.02;;;11.30;;
52368;SDS011;38298;50.346;3.526;2022-12-10T15:49:17;28.02;;;11.65;;
52368;SDS011;38298;50.346;3.526;2022-12-10T15:51:43;27.42;;;10.27;;
52368;SDS011;38298;50.346;3.526;2022-12-10T15:56:54;27.88;;;11.35;;
52368;SDS011;38298;50.346;3.526;2022-12-10T15:59:20;31.02;;;11.02;;
52368;SDS011;38298;50.346;3.526;2022-12-10T16:01:46;28.83;;;11.65;;
52368;SDS011;38298;50.346;3.526;2022-12-10T16:04:12;28.15;;;10.80;;
52368;SDS011;38298;50.346;3.526;2022-12-10T16:06:39;35.70;;;11.80;;
52368;SDS011;38298;50.346;3.526;2022-12-10T16:09:05;30.98;;;11.43;;
52368;SDS011;38298;50.346;3.526;2022-12-10T16:11:34;28.42;;;10.05;;
52368;SDS011;38298;50.346;3.526;2022-12-10T16:14:01;29.73;;;11.18;;
52368;SDS011;38298;50.346;3.526;2022-12-10T16:16:28;29.77;;;11.75;;
52368;SDS011;38298;50.346;3.526;2022-12-10T16:18:54;30.63;;;12.40;;
52368;SDS011;38298;50.346;3.526;2022-12-10T16:21:20;34.95;;;12.35;;
52368;SDS011;38298;50.346;3.526;2022-12-10T16:23:47;32.33;;;12.63;;
52368;SDS011;38298;50.346;3.526;2022-12-10T16:26:18;32.45;;;12.60;;